ICTK1: Arkansas R At Wichita, KS

Data processed at Fri Jan 05 2018 23:46


All information presented herein is the property of the government of the United States of America and may be revised or deleted at any time without prior notice.
Dissemination of this information without the expressed written consent of the Public Affairs Office, Tulsa District U.S. Army Corps of Engineers is strictly prohibited.
These data are gathered electronically and, as presented, have not undergone any form of quality control. These data are not guaranteed to be valid or correct.
Go to home page.
Go to station list.

Upstream stations:

Downstream station:
Previous Day
Next Day
Current Day
    
SHEF ID:       ICTK1     ARKANSAS R AT WICHITA, KS
STATION TYPE:  

               PRECIP     STAGE  RIV-FLOW  BAT-LOAD
                   in        ft       cfs      volt
              Ccp-Rev   Ccp-Rev   Ccp-Rev   Ccp-Rev
(US/Central)
01/03 00:00      0.00      3.04       159     12.89
01/03 01:00      0.00      3.03       158     12.81
01/03 02:00      0.00      3.03       158     12.81
01/03 03:00      0.00      3.02       156     12.81
01/03 04:00      0.00      3.02       156     12.73
01/03 05:00      0.00      3.02       156     12.73
01/03 06:00      0.00      3.02       156     12.65
01/03 07:00      0.00      3.02       156     12.65
01/03 08:00      0.00      3.03       158     12.65
01/03 09:00      0.00      3.03       158     13.53
01/03 10:00      ----      ----      ----      ----
01/03 11:00      ----      3.02       156      ----
01/03 12:00      0.00      3.02       156     14.16
01/03 13:00      0.00      3.01       155     14.64
01/03 14:00      0.00      3.00       153     14.80
01/03 15:00      0.00      3.00       153     14.64
01/03 16:00      0.00      3.01       155     14.40
01/03 17:00      0.00      3.02       156     14.16
01/03 18:00      0.00      3.04       159     13.53
01/03 19:00      0.00      3.06       162     13.13
01/03 20:00      0.00      3.08       165     12.97
01/03 21:00      0.00      3.08       165     12.97
01/03 22:00      0.00      3.09       167     12.97
01/03 23:00      0.00      3.09       167     12.89